createdAt,value
2023-05-09T00:00:31.712Z,3.83
2023-05-09T00:02:58.497Z,3.97
2023-05-09T00:05:25.662Z,4.03
2023-05-09T00:07:52.466Z,4.17
2023-05-09T00:10:19.854Z,4.10
2023-05-09T00:12:47.436Z,3.87
2023-05-09T00:15:14.458Z,4.13
2023-05-09T00:17:41.692Z,4.10
2023-05-09T00:20:12.654Z,4.30
2023-05-09T00:22:43.127Z,3.80
2023-05-09T00:25:10.946Z,4.13
2023-05-09T00:27:38.329Z,4.43
2023-05-09T00:30:07.547Z,4.03
2023-05-09T00:32:34.526Z,3.60
2023-05-09T00:35:01.628Z,4.10
2023-05-09T00:37:31.290Z,4.63
2023-05-09T00:39:58.203Z,4.43
2023-05-09T00:42:25.378Z,5.07
2023-05-09T00:44:52.193Z,4.90
2023-05-09T00:47:19.501Z,5.03
2023-05-09T00:49:46.508Z,4.83
2023-05-09T00:52:13.662Z,4.63
2023-05-09T00:54:40.823Z,4.70
2023-05-09T00:57:07.953Z,4.47
2023-05-09T00:59:35.095Z,4.17
2023-05-09T01:02:02.346Z,3.93
2023-05-09T01:04:29.113Z,3.60
2023-05-09T01:07:06.306Z,3.80
2023-05-09T01:09:47.598Z,4.07
2023-05-09T01:12:31.531Z,3.70
2023-05-09T01:15:12.167Z,4.33
2023-05-09T01:17:53.832Z,3.83
2023-05-09T01:20:27.495Z,3.80
2023-05-09T01:23:23.289Z,3.80
2023-05-09T01:25:58.801Z,4.10
2023-05-09T01:28:37.221Z,4.00
2023-05-09T01:31:06.041Z,4.30
2023-05-09T01:33:36.544Z,5.33
2023-05-09T01:36:08.099Z,5.60
2023-05-09T01:38:37.705Z,5.47
2023-05-09T01:41:06.325Z,5.97
2023-05-09T01:43:35.498Z,5.77
2023-05-09T01:46:05.576Z,5.70
2023-05-09T01:48:36.276Z,5.90
2023-05-09T01:51:04.069Z,6.03
2023-05-09T01:53:32.785Z,5.37
2023-05-09T01:56:00.506Z,5.90
2023-05-09T01:58:28.621Z,5.53
2023-05-09T02:00:55.805Z,6.23
2023-05-09T02:03:22.761Z,5.73
2023-05-09T02:05:50.935Z,5.57
2023-05-09T02:08:21.247Z,5.43
2023-05-09T02:10:49.669Z,5.70
2023-05-09T02:13:16.954Z,5.90
2023-05-09T02:15:44.776Z,6.10
2023-05-09T02:18:11.658Z,5.90
2023-05-09T02:20:38.401Z,5.90
2023-05-09T02:23:05.495Z,5.90
2023-05-09T02:25:33.746Z,6.00
2023-05-09T02:28:01.692Z,5.60
2023-05-09T02:30:35.256Z,5.90
2023-05-09T02:33:06.286Z,6.17
2023-05-09T02:35:33.303Z,5.70
2023-05-09T02:38:01.448Z,6.27
2023-05-09T02:40:29.334Z,5.97
2023-05-09T02:42:56.961Z,6.03
2023-05-09T02:45:24.021Z,6.40
2023-05-09T02:47:51.393Z,6.57
2023-05-09T02:50:18.218Z,6.03
2023-05-09T02:52:45.329Z,5.93
2023-05-09T02:55:13.620Z,6.37
2023-05-09T02:57:40.767Z,6.37
2023-05-09T03:00:12.158Z,5.70
2023-05-09T03:02:39.433Z,6.80
2023-05-09T03:05:06.671Z,6.93
2023-05-09T03:07:33.666Z,6.27
2023-05-09T03:10:00.442Z,6.87
2023-05-09T03:12:27.236Z,6.27
2023-05-09T03:14:54.241Z,6.77
2023-05-09T03:17:21.549Z,6.67
2023-05-09T03:19:48.653Z,6.40
2023-05-09T03:22:16.040Z,6.57
2023-05-09T03:24:43.974Z,6.73
2023-05-09T03:27:10.690Z,6.03
2023-05-09T03:29:38.150Z,6.60
2023-05-09T03:32:05.396Z,6.80
2023-05-09T03:34:32.396Z,6.27
2023-05-09T03:36:59.696Z,6.27
2023-05-09T03:39:26.485Z,6.43
2023-05-09T03:41:53.318Z,6.50
2023-05-09T03:44:20.277Z,6.70
2023-05-09T03:46:47.398Z,6.00
2023-05-09T03:49:14.329Z,6.70
2023-05-09T03:51:42.266Z,6.43
2023-05-09T03:54:09.226Z,6.87
2023-05-09T03:56:36.353Z,6.30
2023-05-09T03:59:03.713Z,6.67
2023-05-09T04:01:30.944Z,6.33
2023-05-09T04:03:58.101Z,6.40
2023-05-09T04:06:25.053Z,5.90
2023-05-09T04:08:52.191Z,6.37
2023-05-09T04:11:19.221Z,6.57
2023-05-09T04:13:46.171Z,6.10
2023-05-09T04:16:13.668Z,6.40
2023-05-09T04:18:42.541Z,6.53
2023-05-09T04:21:09.646Z,6.20
2023-05-09T04:23:37.006Z,6.73
2023-05-09T04:26:04.099Z,6.23
2023-05-09T04:28:31.493Z,6.13
2023-05-09T04:30:58.644Z,5.77
2023-05-09T04:33:25.632Z,5.57
2023-05-09T04:35:52.498Z,5.83
2023-05-09T04:38:19.281Z,5.47
2023-05-09T04:40:46.762Z,5.07
2023-05-09T04:43:13.543Z,5.07
2023-05-09T04:45:40.691Z,5.00
2023-05-09T04:48:08.147Z,4.87
2023-05-09T04:50:35.039Z,4.63
2023-05-09T04:53:01.822Z,4.60
2023-05-09T04:55:28.892Z,4.73
2023-05-09T04:57:55.678Z,4.47
2023-05-09T05:00:22.867Z,4.43
2023-05-09T05:02:49.797Z,4.60
2023-05-09T05:05:16.624Z,4.50
2023-05-09T05:07:44.059Z,4.53
2023-05-09T05:10:11.053Z,4.70
2023-05-09T05:12:37.930Z,4.50
2023-05-09T05:15:05.571Z,4.70
2023-05-09T05:17:32.674Z,4.50
2023-05-09T05:19:59.790Z,4.93
2023-05-09T05:22:26.794Z,4.80
2023-05-09T05:24:53.587Z,4.53
2023-05-09T05:27:20.410Z,5.20
2023-05-09T05:29:47.698Z,4.83
2023-05-09T05:32:14.660Z,5.60
2023-05-09T05:34:41.692Z,4.90
2023-05-09T05:37:08.749Z,4.90
2023-05-09T05:39:35.585Z,4.97
2023-05-09T05:42:02.661Z,4.47
2023-05-09T05:44:29.813Z,5.07
2023-05-09T05:46:56.831Z,4.95
2023-05-09T05:49:25.107Z,4.43
2023-05-09T05:51:52.184Z,4.60
2023-05-09T05:54:19.119Z,5.47
2023-05-09T05:56:45.983Z,4.80
2023-05-09T05:59:13.628Z,4.90
2023-05-09T06:01:41.180Z,4.50
2023-05-09T06:04:09.003Z,4.85
2023-05-09T06:06:36.182Z,4.97
2023-05-09T06:09:03.076Z,4.80
2023-05-09T06:11:30.108Z,6.38
2023-05-09T06:13:57.177Z,7.97
2023-05-09T06:16:24.036Z,8.40
2023-05-09T06:18:53.369Z,8.60
2023-05-09T06:21:22.199Z,8.10
2023-05-09T06:24:04.940Z,7.72
2023-05-09T06:26:33.443Z,8.55
2023-05-09T06:29:00.321Z,8.38
2023-05-09T06:31:27.385Z,7.93
2023-05-09T06:33:54.853Z,8.35
2023-05-09T06:36:21.848Z,7.90
2023-05-09T06:38:48.789Z,7.68
2023-05-09T06:41:15.755Z,7.10
2023-05-09T06:43:42.458Z,8.13
2023-05-09T06:46:09.665Z,8.07
2023-05-09T06:48:36.696Z,8.05
2023-05-09T06:51:03.491Z,8.15
2023-05-09T06:53:30.427Z,7.72
2023-05-09T06:55:57.498Z,8.93
2023-05-09T06:58:24.779Z,8.65
2023-05-09T07:00:51.653Z,8.70
2023-05-09T07:03:19.103Z,7.97
2023-05-09T07:05:46.068Z,8.52
2023-05-09T07:08:12.856Z,8.20
2023-05-09T07:10:40.402Z,8.45
2023-05-09T07:13:07.357Z,8.93
2023-05-09T07:15:41.954Z,9.00
2023-05-09T07:18:09.996Z,9.50
2023-05-09T07:20:37.102Z,7.65
2023-05-09T07:23:04.637Z,9.23
2023-05-09T07:25:31.714Z,8.70
2023-05-09T07:27:58.936Z,8.75
2023-05-09T07:30:25.951Z,9.20
2023-05-09T07:32:53.543Z,9.43
2023-05-09T07:35:20.976Z,9.82
2023-05-09T07:37:48.237Z,9.70
2023-05-09T07:40:15.928Z,8.82
2023-05-09T07:42:49.417Z,10.15
2023-05-09T07:45:21.207Z,9.32
2023-05-09T07:47:50.353Z,9.30
2023-05-09T07:50:17.500Z,9.57
2023-05-09T07:52:45.434Z,8.73
2023-05-09T07:55:12.517Z,8.40
2023-05-09T07:57:40.103Z,8.70
2023-05-09T08:00:09.063Z,9.05
2023-05-09T08:02:36.066Z,8.23
2023-05-09T08:05:03.414Z,9.00
2023-05-09T08:07:30.634Z,9.75
2023-05-09T08:09:57.855Z,9.75
2023-05-09T08:12:24.678Z,9.18
2023-05-09T08:14:51.799Z,9.80
2023-05-09T08:17:18.631Z,9.70
2023-05-09T08:19:45.800Z,9.40
2023-05-09T08:22:19.769Z,9.32
2023-05-09T08:24:47.296Z,10.70
2023-05-09T08:27:15.478Z,9.98
2023-05-09T08:29:43.572Z,10.20
2023-05-09T08:32:10.404Z,10.85
2023-05-09T08:34:37.220Z,10.27
2023-05-09T08:37:05.350Z,9.55
2023-05-09T08:39:34.940Z,9.32
2023-05-09T08:42:02.812Z,9.80
2023-05-09T08:44:31.591Z,9.43
2023-05-09T08:47:03.595Z,9.68
2023-05-09T08:49:30.918Z,9.07
2023-05-09T08:51:58.012Z,10.00
2023-05-09T08:54:25.913Z,9.38
2023-05-09T08:56:52.818Z,9.57
2023-05-09T08:59:19.672Z,8.85
2023-05-09T09:01:47.301Z,10.02
2023-05-09T09:04:14.167Z,9.32
2023-05-09T09:06:42.111Z,10.00
2023-05-09T09:09:09.526Z,9.88
2023-05-09T09:11:38.983Z,9.75
2023-05-09T09:14:29.005Z,9.73
2023-05-09T09:16:58.899Z,9.63
2023-05-09T09:19:30.853Z,9.30
2023-05-09T09:22:01.634Z,9.50
2023-05-09T09:24:29.525Z,9.23
2023-05-09T09:26:56.757Z,9.95
2023-05-09T09:29:24.523Z,9.25
2023-05-09T09:31:57.686Z,9.25
2023-05-09T09:34:24.829Z,9.48
2023-05-09T09:36:51.725Z,9.50
2023-05-09T09:39:19.033Z,8.98
2023-05-09T09:41:46.212Z,9.75
2023-05-09T09:44:21.241Z,9.80
2023-05-09T09:46:51.088Z,9.55
2023-05-09T09:49:26.941Z,9.88
2023-05-09T09:51:59.854Z,9.32
2023-05-09T09:54:28.341Z,9.23
2023-05-09T09:56:56.952Z,9.65
2023-05-09T09:59:25.802Z,9.15
2023-05-09T10:01:58.084Z,8.90
2023-05-09T10:04:26.797Z,9.30
2023-05-09T10:07:03.741Z,8.82
2023-05-09T10:09:30.590Z,8.68
2023-05-09T10:12:01.851Z,8.98
2023-05-09T10:14:32.009Z,9.02
2023-05-09T10:17:02.885Z,8.88
2023-05-09T10:19:30.893Z,9.43
2023-05-09T10:22:04.448Z,8.95
2023-05-09T10:25:03.645Z,9.18
2023-05-09T10:27:36.847Z,9.43
2023-05-09T10:30:26.357Z,9.30
2023-05-09T10:33:11.712Z,10.35
2023-05-09T10:35:49.090Z,9.10
2023-05-09T10:38:17.221Z,8.88
2023-05-09T10:40:47.887Z,8.00
2023-05-09T10:43:14.934Z,9.65
2023-05-09T10:45:43.034Z,9.82
2023-05-09T10:48:11.112Z,8.48
2023-05-09T10:50:40.467Z,7.93
2023-05-09T10:53:11.643Z,8.57
2023-05-09T10:55:39.523Z,8.98
2023-05-09T10:58:26.518Z,8.57
2023-05-09T11:00:57.137Z,8.20
2023-05-09T11:03:30.111Z,8.60
2023-05-09T11:05:58.869Z,8.60
2023-05-09T11:08:31.067Z,8.20
2023-05-09T11:11:02.211Z,7.55
2023-05-09T11:13:36.505Z,7.60
2023-05-09T11:16:03.664Z,8.10
2023-05-09T11:18:32.760Z,8.00
2023-05-09T11:21:07.118Z,7.95
2023-05-09T11:23:34.079Z,8.25
2023-05-09T11:26:09.480Z,7.13
2023-05-09T11:28:38.489Z,6.78
2023-05-09T11:31:20.974Z,7.97
2023-05-09T11:33:55.076Z,7.05
2023-05-09T11:36:35.031Z,7.47
2023-05-09T11:39:03.398Z,7.85
2023-05-09T11:41:31.121Z,7.00
2023-05-09T11:44:00.444Z,7.65
2023-05-09T11:46:27.772Z,6.80
2023-05-09T11:48:54.810Z,6.75
2023-05-09T11:51:21.955Z,7.10
2023-05-09T11:53:54.187Z,7.30
2023-05-09T11:56:23.485Z,6.18
2023-05-09T11:58:52.483Z,6.30
2023-05-09T12:01:19.927Z,6.90
2023-05-09T12:03:47.459Z,5.57
2023-05-09T12:06:16.949Z,6.10
2023-05-09T12:08:45.384Z,6.68
2023-05-09T12:11:13.757Z,5.63
2023-05-09T12:13:51.278Z,5.85
2023-05-09T12:16:20.294Z,5.70
2023-05-09T12:18:49.556Z,5.20
2023-05-09T12:21:20.300Z,4.60
2023-05-09T12:23:50.604Z,4.30
2023-05-09T12:26:18.322Z,4.22
2023-05-09T12:28:45.710Z,4.50
2023-05-09T12:31:12.991Z,4.50
2023-05-09T12:33:40.735Z,4.40
2023-05-09T12:36:12.899Z,4.90
2023-05-09T12:38:40.181Z,4.50
2023-05-09T12:41:22.461Z,4.70
2023-05-09T12:43:58.486Z,4.55
2023-05-09T12:46:25.649Z,4.53
2023-05-09T12:48:53.247Z,4.47
2023-05-09T12:51:21.989Z,4.60
2023-05-09T12:53:48.951Z,4.30
2023-05-09T12:56:18.984Z,4.07
2023-05-09T12:58:53.236Z,4.35
2023-05-09T13:01:28.300Z,4.28
2023-05-09T13:04:06.357Z,4.95
2023-05-09T13:06:34.601Z,4.90
2023-05-09T13:09:05.786Z,4.88
2023-05-09T13:11:32.742Z,5.13
2023-05-09T13:13:59.970Z,4.80
2023-05-09T13:16:27.107Z,5.75
2023-05-09T13:18:54.161Z,4.72
2023-05-09T13:21:21.158Z,5.18
2023-05-09T13:23:50.031Z,5.03
2023-05-09T13:26:16.994Z,5.43
2023-05-09T13:28:44.047Z,4.25
2023-05-09T13:31:11.017Z,5.30
2023-05-09T13:33:37.902Z,5.15
2023-05-09T13:36:05.237Z,5.38
2023-05-09T13:38:33.236Z,4.80
2023-05-09T13:41:00.655Z,5.07
2023-05-09T13:43:27.532Z,4.40
2023-05-09T13:45:54.680Z,4.90
2023-05-09T13:48:21.558Z,4.57
2023-05-09T13:50:48.579Z,5.15
2023-05-09T13:53:15.473Z,4.70
2023-05-09T13:55:43.195Z,4.70
2023-05-09T13:58:10.311Z,4.00
2023-05-09T14:00:37.608Z,4.28
2023-05-09T14:03:04.872Z,4.35
2023-05-09T14:05:32.088Z,4.22
2023-05-09T14:07:59.320Z,4.25
2023-05-09T14:10:27.334Z,4.45
2023-05-09T14:12:54.310Z,4.30
2023-05-09T14:15:21.456Z,4.20
2023-05-09T14:17:48.292Z,5.03
2023-05-09T14:20:18.378Z,4.78
2023-05-09T14:22:45.413Z,5.15
2023-05-09T14:25:12.625Z,5.97
2023-05-09T14:27:39.466Z,4.70
2023-05-09T14:30:07.247Z,5.18
2023-05-09T14:32:34.098Z,5.22
2023-05-09T14:35:01.129Z,5.15
2023-05-09T14:37:29.691Z,5.15
2023-05-09T14:39:56.529Z,5.07
2023-05-09T14:42:23.341Z,4.90
2023-05-09T14:44:50.461Z,4.93
2023-05-09T14:47:17.733Z,4.88
2023-05-09T14:49:44.720Z,4.53
2023-05-09T14:52:11.567Z,4.68
2023-05-09T14:54:38.385Z,4.60
2023-05-09T14:57:07.696Z,4.40
2023-05-09T14:59:36.904Z,5.00
2023-05-09T15:02:04.090Z,5.25
2023-05-09T15:04:31.726Z,4.68
2023-05-09T15:06:59.197Z,4.85
2023-05-09T15:09:26.992Z,4.13
2023-05-09T15:11:55.010Z,4.40
2023-05-09T15:14:21.965Z,4.18
2023-05-09T15:16:48.916Z,4.05
2023-05-09T15:19:16.306Z,3.80
2023-05-09T15:21:43.086Z,3.65
2023-05-09T15:24:10.243Z,3.80
2023-05-09T15:26:37.369Z,3.60
2023-05-09T15:29:04.206Z,4.10
2023-05-09T15:31:33.206Z,3.92
2023-05-09T15:34:01.439Z,4.47
2023-05-09T15:36:32.145Z,4.45
2023-05-09T15:38:58.890Z,4.07
2023-05-09T15:41:25.893Z,4.70
2023-05-09T15:43:53.032Z,4.57
2023-05-09T15:46:20.043Z,4.35
2023-05-09T15:48:47.438Z,4.78
2023-05-09T15:51:14.274Z,5.05
2023-05-09T15:53:41.498Z,4.60
2023-05-09T15:56:09.169Z,4.45
2023-05-09T15:58:36.758Z,5.15
2023-05-09T16:01:06.117Z,4.72
2023-05-09T16:03:33.524Z,4.88
2023-05-09T16:06:00.889Z,4.60
2023-05-09T16:08:27.910Z,4.60
2023-05-09T16:10:54.739Z,4.53
2023-05-09T16:13:21.719Z,4.97
2023-05-09T16:15:50.260Z,4.40
2023-05-09T16:18:17.120Z,4.72
2023-05-09T16:20:44.170Z,5.05
2023-05-09T16:23:11.820Z,5.97
2023-05-09T16:25:38.658Z,5.75
2023-05-09T16:28:07.100Z,6.03
2023-05-09T16:30:34.722Z,6.45
2023-05-09T16:33:01.779Z,7.00
2023-05-09T16:35:28.831Z,6.25
2023-05-09T16:37:56.100Z,6.57
2023-05-09T16:40:23.255Z,6.10
2023-05-09T16:42:50.188Z,7.10
2023-05-09T16:45:17.668Z,6.55
2023-05-09T16:47:44.510Z,5.88
2023-05-09T16:50:11.493Z,6.75
2023-05-09T16:52:38.604Z,6.50
2023-05-09T16:55:05.879Z,6.43
2023-05-09T16:57:33.330Z,6.55
2023-05-09T17:00:00.425Z,6.20
2023-05-09T17:02:27.597Z,6.50
2023-05-09T17:04:54.745Z,6.35
2023-05-09T17:07:21.823Z,6.70
2023-05-09T17:09:49.533Z,6.85
2023-05-09T17:12:18.149Z,6.50
2023-05-09T17:14:46.106Z,6.50
2023-05-09T17:17:13.719Z,6.90
2023-05-09T17:19:40.866Z,6.85
2023-05-09T17:22:08.290Z,6.90
2023-05-09T17:24:35.118Z,7.28
2023-05-09T17:27:02.160Z,6.97
2023-05-09T17:29:30.931Z,7.75
2023-05-09T17:32:01.799Z,8.13
2023-05-09T17:34:29.740Z,8.65
2023-05-09T17:36:57.279Z,8.68
2023-05-09T17:39:25.368Z,8.50
2023-05-09T17:41:52.631Z,9.27
2023-05-09T17:44:19.498Z,8.27
2023-05-09T17:46:48.041Z,8.30
2023-05-09T17:49:15.353Z,8.17
2023-05-09T17:51:42.454Z,9.67
2023-05-09T17:54:10.480Z,9.93
2023-05-09T17:56:37.708Z,10.17
2023-05-09T17:59:05.524Z,9.67
2023-05-09T18:01:32.677Z,9.60
2023-05-09T18:03:59.883Z,10.20
2023-05-09T18:06:27.115Z,10.13
2023-05-09T18:08:53.973Z,10.40
2023-05-09T18:11:21.188Z,10.20
2023-05-09T18:13:48.535Z,9.90
2023-05-09T18:16:15.820Z,9.37
2023-05-09T18:18:42.684Z,10.40
2023-05-09T18:21:09.837Z,10.77
2023-05-09T18:23:36.954Z,9.73
2023-05-09T18:26:04.361Z,9.87
2023-05-09T18:28:32.855Z,9.00
2023-05-09T18:31:00.760Z,10.23
2023-05-09T18:33:28.869Z,8.97
2023-05-09T18:35:55.838Z,10.20
2023-05-09T18:38:22.791Z,10.40
2023-05-09T18:40:51.893Z,9.93
2023-05-09T18:43:20.822Z,11.10
2023-05-09T18:45:48.146Z,9.97
2023-05-09T18:48:18.574Z,10.73
2023-05-09T18:50:45.826Z,9.53
2023-05-09T18:53:12.775Z,10.40
2023-05-09T18:55:40.136Z,10.17
2023-05-09T18:58:07.156Z,9.50
2023-05-09T19:00:35.719Z,9.20
2023-05-09T19:03:02.855Z,9.20
2023-05-09T19:05:30.033Z,8.60
2023-05-09T19:07:57.120Z,8.53
2023-05-09T19:10:24.510Z,8.53
2023-05-09T19:12:51.810Z,7.87
2023-05-09T19:15:19.818Z,8.60
2023-05-09T19:17:47.095Z,8.27
2023-05-09T19:20:14.439Z,8.40
2023-05-09T19:22:45.590Z,7.83
2023-05-09T19:25:12.716Z,8.37
2023-05-09T19:27:39.630Z,8.00
2023-05-09T19:30:07.886Z,8.33
2023-05-09T19:32:35.073Z,8.63
2023-05-09T19:35:01.997Z,8.77
2023-05-09T19:37:29.173Z,8.97
2023-05-09T19:39:56.120Z,8.50
2023-05-09T19:42:23.051Z,7.30
2023-05-09T19:44:52.584Z,6.17
2023-05-09T19:47:20.188Z,6.20
2023-05-09T19:49:46.987Z,6.20
2023-05-09T19:52:14.564Z,5.23
2023-05-09T19:54:42.341Z,5.30
2023-05-09T19:57:10.738Z,5.50
2023-05-09T19:59:38.204Z,5.60
2023-05-09T20:02:05.759Z,6.10
2023-05-09T20:04:35.227Z,4.97
2023-05-09T20:07:05.990Z,5.30
2023-05-09T20:09:33.259Z,5.47
2023-05-09T20:12:02.668Z,5.27
2023-05-09T20:14:29.844Z,4.80
2023-05-09T20:16:57.360Z,5.77
2023-05-09T20:19:24.438Z,5.27
2023-05-09T20:21:51.597Z,5.57
2023-05-09T20:24:18.492Z,5.40
2023-05-09T20:26:45.486Z,5.37
2023-05-09T20:29:12.636Z,5.73
2023-05-09T20:31:39.677Z,5.70
2023-05-09T20:34:10.614Z,5.40
2023-05-09T20:36:37.755Z,5.80
2023-05-09T20:39:04.924Z,7.07
2023-05-09T20:41:32.055Z,6.57
2023-05-09T20:44:03.731Z,6.17
2023-05-09T20:46:31.260Z,5.80
2023-05-09T20:48:58.480Z,6.90
2023-05-09T20:51:25.754Z,6.87
2023-05-09T20:53:52.668Z,6.80
2023-05-09T20:56:19.756Z,7.00
2023-05-09T20:58:46.773Z,7.27
2023-05-09T21:01:14.071Z,7.13
2023-05-09T21:03:41.023Z,7.10
2023-05-09T21:06:08.304Z,7.47
2023-05-09T21:08:35.270Z,7.17
2023-05-09T21:11:02.350Z,7.83
2023-05-09T21:13:29.674Z,6.93
2023-05-09T21:15:56.516Z,6.83
2023-05-09T21:18:23.527Z,7.73
2023-05-09T21:20:50.950Z,6.70
2023-05-09T21:23:18.687Z,6.60
2023-05-09T21:25:45.647Z,5.97
2023-05-09T21:28:14.976Z,6.17
2023-05-09T21:30:42.133Z,6.63
2023-05-09T21:33:09.073Z,5.90
2023-05-09T21:35:36.362Z,6.07
2023-05-09T21:38:03.922Z,6.30
2023-05-09T21:40:30.912Z,6.03
2023-05-09T21:42:57.763Z,5.97
2023-05-09T21:45:24.699Z,5.70
2023-05-09T21:47:51.841Z,5.80
2023-05-09T21:50:19.071Z,5.43
2023-05-09T21:52:45.920Z,5.57
2023-05-09T21:55:13.172Z,6.17
2023-05-09T21:57:40.285Z,5.70
2023-05-09T22:00:14.464Z,5.83
2023-05-09T22:02:44.463Z,6.00
2023-05-09T22:05:12.731Z,6.00
2023-05-09T22:07:39.791Z,6.30
2023-05-09T22:10:07.242Z,7.20
2023-05-09T22:12:34.337Z,6.47
2023-05-09T22:15:01.290Z,7.10
2023-05-09T22:17:28.548Z,7.20
2023-05-09T22:19:55.528Z,7.20
2023-05-09T22:22:25.496Z,6.93
2023-05-09T22:24:52.782Z,6.47
2023-05-09T22:27:19.880Z,6.73
2023-05-09T22:29:47.107Z,6.50
2023-05-09T22:32:15.778Z,7.40
2023-05-09T22:34:42.580Z,7.67
2023-05-09T22:37:09.973Z,7.57
2023-05-09T22:39:37.056Z,7.63
2023-05-09T22:42:04.504Z,7.17
2023-05-09T22:44:32.632Z,7.57
2023-05-09T22:46:59.614Z,8.03
2023-05-09T22:49:29.847Z,7.87
2023-05-09T22:51:56.963Z,9.00
2023-05-09T22:54:24.371Z,8.27
2023-05-09T22:56:51.209Z,8.10
2023-05-09T22:59:18.229Z,8.00
2023-05-09T23:01:45.387Z,7.90
2023-05-09T23:04:19.054Z,7.83
2023-05-09T23:06:45.933Z,7.60
2023-05-09T23:09:12.765Z,8.33
2023-05-09T23:11:39.828Z,8.10
2023-05-09T23:14:06.971Z,8.60
2023-05-09T23:16:33.822Z,8.60
2023-05-09T23:19:00.925Z,8.10
2023-05-09T23:21:27.701Z,8.40
2023-05-09T23:23:54.590Z,8.87
2023-05-09T23:26:21.966Z,8.63
2023-05-09T23:28:48.726Z,9.30
2023-05-09T23:31:15.636Z,9.37
2023-05-09T23:33:42.765Z,9.00
2023-05-09T23:36:09.835Z,8.80
2023-05-09T23:38:37.145Z,9.73
2023-05-09T23:41:03.914Z,9.53
2023-05-09T23:43:30.948Z,9.50
2023-05-09T23:45:57.865Z,9.47
2023-05-09T23:48:24.981Z,10.30
2023-05-09T23:50:51.757Z,9.97
2023-05-09T23:53:18.701Z,9.47
2023-05-09T23:55:45.628Z,9.57
2023-05-09T23:58:12.661Z,9.67
